Time;durP1;ratioP1;P1;durP2;ratioP2;P2;SDS_P1;SDS_P2;PMS_P1;PMS_P2;Temp;Humidity;BMP_temperature;BMP_pressure;BME280_temperature;BME280_humidity;BME280_pressure;Samples;Min_cycle;Max_cycle;Signal;HPM_P1;HPM_P2
2022/03/29 00:02:27;403945.00;1.35;696.59;32579.00;0.11;57.05;;;;;13.50;1.00;;;;;;2314604;55;3726;-88
2022/03/29 00:42:54;936882.00;3.12;1620.99;14428.00;0.05;25.62;;;;;14.40;1.00;;;;;;2257780;61;1449;-88
2022/03/29 00:45:30;320575.00;1.07;553.29;0.00;0.00;0.62;;;;;14.50;1.00;;;;;;2264800;55;3767;-87
2022/03/29 00:51:03;492934.00;1.64;849.66;19567.00;0.07;34.52;;;;;14.30;1.00;;;;;;2329206;41;1680;-88
2022/03/29 01:14:12;701643.00;2.34;1210.09;70026.00;0.23;121.81;;;;;15.00;1.00;;;;;;1419440;41;3182;-87
2022/03/29 01:26:49;886008.00;2.95;1531.56;0.00;0.00;0.62;;;;;13.70;1.00;;;;;;2257431;61;1410;-89
2022/03/29 01:29:22;198856.00;0.66;343.95;0.00;0.00;0.62;;;;;13.80;1.00;;;;;;2282233;40;3599;-88
2022/03/29 01:39:24;1134692.00;3.78;1972.58;54063.00;0.18;94.21;;;;;13.00;1.00;;;;;;2257881;61;1972;-89
2022/03/29 01:42:00;1346556.00;4.49;2357.57;136362.00;0.45;236.30;;;;;13.00;1.00;;;;;;2262247;40;3583;-87
2022/03/29 01:51:58;2173455.00;7.24;3986.78;131256.00;0.44;227.50;;;;;12.70;1.00;;;;;;2258488;61;1317;-88
2022/03/29 02:07:13;152638.00;0.51;264.35;0.00;0.00;0.62;;;;;13.20;1.00;;;;;;1431614;41;3180;-87
2022/03/29 02:12:23;483951.00;1.61;834.20;44204.00;0.15;77.16;;;;;13.40;1.00;;;;;;2256881;56;1509;-87
2022/03/29 02:14:57;197293.00;0.66;341.26;0.00;0.00;0.62;;;;;13.30;1.00;;;;;;2251773;61;1506;-89
2022/03/29 02:19:56;566953.00;1.89;977.19;0.00;0.00;0.62;;;;;13.90;1.00;;;;;;1186010;41;3430;-90
2022/03/29 02:22:44;225709.00;0.75;390.17;0.00;0.00;0.62;;;;;14.10;1.00;;;;;;2255703;61;1450;-88
2022/03/29 02:25:16;253144.00;0.84;437.36;0.00;0.00;0.62;;;;;14.00;1.00;;;;;;2255696;61;1614;-89
2022/03/29 02:28:11;472334.00;1.57;814.21;17935.00;0.06;31.69;;;;;14.20;1.00;;;;;;2276287;56;3701;-88
2022/03/29 02:45:47;2070393.00;6.90;3769.88;73653.00;0.25;128.07;;;;;13.60;1.00;;;;;;2257748;61;1390;-87
2022/03/29 02:48:18;837264.00;2.79;1446.19;80298.00;0.27;139.55;;;;;13.60;1.00;;;;;;2256333;61;1059;-88
2022/03/29 02:50:47;552617.00;1.84;952.47;90510.00;0.30;157.19;;;;;13.30;1.00;;;;;;2256287;61;1529;-88
2022/03/29 02:53:15;520031.00;1.73;896.32;92054.00;0.31;159.85;;;;;13.20;1.00;;;;;;2256123;61;1653;-88
2022/03/29 02:55:56;390297.00;1.30;673.13;113170.00;0.38;196.30;;;;;12.90;1.00;;;;;;2256232;61;1565;-89
2022/03/29 03:01:28;478906.00;1.60;825.51;95195.00;0.32;165.28;;;;;13.70;1.00;;;;;;2271431;56;1866;-87
2022/03/29 03:09:02;676735.00;2.26;1166.92;6333.00;0.02;11.60;;;;;14.60;1.00;;;;;;2246239;62;1243;-89
2022/03/29 03:14:52;229627.00;0.77;396.91;55360.00;0.18;96.45;;;;;13.60;1.00;;;;;;2244597;61;770;-89
2022/03/29 03:20:26;1237919.00;4.13;2158.93;59833.00;0.20;104.19;;;;;13.10;1.00;;;;;;2264194;56;1882;-89
2022/03/29 03:23:32;440318.00;1.47;759.13;0.00;0.00;0.62;;;;;13.00;1.00;;;;;;2262731;55;3773;-89
2022/03/29 03:31:39;794029.00;2.65;1370.71;100636.00;0.34;174.67;;;;;13.70;1.00;;;;;;1958934;56;2721;-87
2022/03/29 04:04:49;1872218.00;6.24;3365.16;137416.00;0.46;238.12;;;;;13.60;1.00;;;;;;2257963;61;1328;-90
2022/03/29 04:07:26;1215887.00;4.05;2118.97;81135.00;0.27;141.00;;;;;13.60;1.00;;;;;;2308681;41;3536;-89
2022/03/29 04:42:53;596814.00;1.99;1028.72;0.00;0.00;0.62;;;;;12.90;1.00;;;;;;2295965;55;3544;-89
2022/03/29 04:50:18;792545.00;2.64;1368.13;0.00;0.00;0.62;;;;;11.90;1.00;;;;;;2271531;41;3487;-89
2022/03/29 04:55:16;1050682.00;3.50;1822.45;56909.00;0.19;99.13;;;;;12.20;1.00;;;;;;1951142;56;3777;-86
2022/03/29 05:05:19;558214.00;1.86;962.12;0.00;0.00;0.62;;;;;12.90;1.00;;;;;;1562646;41;3492;-89
2022/03/29 05:07:51;971466.00;3.24;1682.00;24764.00;0.08;43.52;;;;;12.80;1.00;;;;;;2255925;61;1745;-88
2022/03/29 05:10:22;1016608.00;3.39;1761.91;47106.00;0.16;82.18;;;;;12.80;1.00;;;;;;2255970;61;1483;-88
2022/03/29 05:12:51;1527140.00;5.09;2694.29;70065.00;0.23;121.87;;;;;12.70;1.00;;;;;;2271477;40;3599;-87
2022/03/29 05:17:49;866558.00;2.89;1497.46;42607.00;0.14;74.40;;;;;11.40;1.00;;;;;;2257262;61;1427;-87
2022/03/29 05:20:24;596077.00;1.99;1027.45;89214.00;0.30;154.95;;;;;10.90;1.00;;;;;;2255830;61;1923;-88
2022/03/29 05:23:13;772061.00;2.57;1332.44;129100.00;0.43;223.78;;;;;10.80;1.00;;;;;;2255962;61;1348;-90
2022/03/29 05:25:49;1042962.00;3.48;1808.71;134129.00;0.45;232.45;;;;;11.50;1.00;;;;;;2255705;61;1283;-88
2022/03/29 05:33:21;450981.00;1.50;777.47;0.00;0.00;0.62;;;;;12.70;1.00;;;;;;2257607;61;1419;-89
2022/03/29 05:35:54;171656.00;0.57;297.12;0.00;0.00;0.62;;;;;12.90;1.00;;;;;;2255724;61;1366;-87
2022/03/29 05:38:36;260089.00;0.87;449.30;0.00;0.00;0.62;;;;;13.20;1.00;;;;;;2256034;61;995;-88
2022/03/29 05:48:55;292679.00;0.98;505.33;20669.00;0.07;36.43;;;;;14.20;1.00;;;;;;2251912;61;672;-87
2022/03/29 05:53:58;526484.00;1.75;907.43;0.00;0.00;0.62;;;;;14.20;1.00;;;;;;2253308;61;1389;-89
2022/03/29 05:56:36;325415.00;1.08;561.61;0.00;0.00;0.62;;;;;14.80;1.00;;;;;;2251698;61;2042;-88
2022/03/29 06:04:07;461971.00;1.54;796.38;44833.00;0.15;78.25;;;;;14.60;1.00;;;;;;2257222;61;1313;-91
2022/03/29 06:06:36;706348.00;2.35;1218.25;6700.00;0.02;12.23;;;;;13.90;1.00;;;;;;2256067;40;3600;-90
2022/03/29 06:11:41;1032151.00;3.44;1789.50;51452.00;0.17;89.70;;;;;13.70;1.00;;;;;;1233866;55;3078;-89
2022/03/29 06:24:22;1821184.00;6.07;3263.39;149194.00;0.50;258.42;;;;;15.60;1.00;;;;;;2277501;41;3503;-88
2022/03/29 06:29:22;1330990.00;4.44;2328.93;79562.00;0.27;138.28;;;;;16.10;1.00;;;;;;2257460;61;1428;-90
2022/03/29 06:42:30;829049.00;2.76;1431.83;84022.00;0.28;145.98;;;;;16.20;1.00;;;;;;2030434;60;1725;-89
2022/03/29 06:45:01;867192.00;2.89;1498.57;115147.00;0.38;199.71;;;;;16.20;1.00;;;;;;2255854;61;1717;-89
2022/03/29 06:47:28;621823.00;2.07;1071.92;88855.00;0.30;154.33;;;;;16.60;1.00;;;;;;2255401;61;1892;-88
2022/03/29 06:49:57;172224.00;0.57;298.10;0.00;0.00;0.62;;;;;16.60;1.00;;;;;;2255781;61;1078;-88
2022/03/29 06:52:29;415705.00;1.39;716.81;68627.00;0.23;119.39;;;;;16.40;1.00;;;;;;2255695;61;1061;-89
2022/03/29 06:54:59;683115.00;2.28;1177.97;60897.00;0.20;106.03;;;;;16.00;1.00;;;;;;2255753;61;1562;-87
2022/03/29 06:57:26;426666.00;1.42;735.65;0.00;0.00;0.62;;;;;15.80;1.00;;;;;;2255437;61;1437;-87
2022/03/29 06:59:53;229907.00;0.77;397.39;0.00;0.00;0.62;;;;;15.60;1.00;;;;;;2255712;61;1720;-88
2022/03/29 07:02:25;177139.00;0.59;306.56;0.00;0.00;0.62;;;;;15.40;1.00;;;;;;2255736;61;2002;-87
2022/03/29 07:04:53;390152.00;1.30;672.88;34317.00;0.11;60.05;;;;;15.70;1.00;;;;;;2255666;61;941;-89
2022/03/29 07:07:20;207435.00;0.69;358.72;12417.00;0.04;22.14;;;;;16.00;1.00;;;;;;2255641;61;1522;-88
2022/03/29 07:12:32;78763.00;0.26;136.90;0.00;0.00;0.62;;;;;16.40;1.00;;;;;;2255777;61;641;-88
2022/03/29 07:15:03;125197.00;0.42;217.05;0.00;0.00;0.62;;;;;16.10;1.00;;;;;;2255649;61;1531;-89
2022/03/29 07:17:32;192449.00;0.64;332.92;61854.00;0.21;107.68;;;;;16.50;1.00;;;;;;2255625;61;1414;-87
2022/03/29 07:20:01;330860.00;1.10;570.96;40162.00;0.13;70.17;;;;;16.20;1.00;;;;;;2255688;61;1470;-89
2022/03/29 07:22:29;80501.00;0.27;139.90;14358.00;0.05;25.50;;;;;16.40;1.00;;;;;;2255761;61;2001;-87
2022/03/29 07:24:56;134709.00;0.45;233.45;0.00;0.00;0.62;;;;;16.70;1.00;;;;;;2255621;61;1516;-88
2022/03/29 07:30:45;1214826.00;4.05;2117.05;84343.00;0.28;146.54;;;;;16.00;1.00;;;;;;2255285;61;1865;-88
2022/03/29 07:33:21;847841.00;2.83;1464.69;26400.00;0.09;46.35;;;;;16.10;1.00;;;;;;2255611;61;1531;-88
2022/03/29 07:36:03;581497.00;1.94;1002.28;11820.00;0.04;21.10;;;;;16.10;1.00;;;;;;2255602;61;1471;-87
2022/03/29 07:41:35;1084597.00;3.62;1882.90;135110.00;0.45;234.14;;;;;16.40;1.00;;;;;;2254279;61;2007;-88
2022/03/29 07:44:59;213017.00;0.71;368.33;0.00;0.00;0.62;;;;;16.20;1.00;;;;;;2255537;61;1094;-87
2022/03/29 07:47:29;475227.00;1.58;819.18;0.00;0.00;0.62;;;;;16.20;1.00;;;;;;2253430;61;1634;-89
2022/03/29 07:50:53;55344.00;0.18;96.43;0.00;0.00;0.62;;;;;16.30;1.00;;;;;;2255499;61;1797;-88
2022/03/29 07:54:17;;;;;;;;;;;;;;;;;;;;;
2022/03/29 08:14:53;306929.00;1.02;529.83;0.00;0.00;0.62;;;;;18.30;1.00;;;;;;1519474;55;2697;-87
2022/03/29 08:17:20;337720.00;1.13;582.75;63696.00;0.21;110.87;;;;;17.90;1.00;;;;;;2256073;61;1324;-87
2022/03/29 08:19:47;141254.00;0.47;244.73;0.00;0.00;0.62;;;;;18.10;1.00;;;;;;2256161;61;1693;-89
2022/03/29 08:22:29;226418.00;0.75;391.39;0.00;0.00;0.62;;;;;18.60;1.00;;;;;;2256055;61;1911;-86
2022/03/29 08:24:56;473953.00;1.58;816.99;0.00;0.00;0.62;;;;;18.60;1.00;;;;;;2256102;61;1452;-86
2022/03/29 08:27:29;238252.00;0.79;411.74;0.00;0.00;0.62;;;;;18.10;1.00;;;;;;2256010;61;1711;-88
2022/03/29 08:30:01;162540.00;0.54;281.42;0.00;0.00;0.62;;;;;18.60;1.00;;;;;;2256255;61;983;-88
2022/03/29 08:32:32;294287.00;0.98;508.10;36473.00;0.12;63.79;;;;;18.40;1.00;;;;;;2256137;61;1029;-87
2022/03/29 08:35:00;233915.00;0.78;404.28;10640.00;0.04;19.06;;;;;18.50;1.00;;;;;;2256002;61;1270;-86
2022/03/29 08:38:27;;;;;;;;;;;;;;;;;;;;;
2022/03/29 08:41:00;459944.00;1.53;792.89;26884.00;0.09;47.19;;;;;18.80;1.00;;;;;;2259580;61;2007;-88
2022/03/29 08:43:31;904245.00;3.01;1563.58;0.00;0.00;0.62;;;;;18.70;1.00;;;;;;2256490;61;1128;-87
2022/03/29 08:48:37;644713.00;2.15;1111.49;0.00;0.00;0.62;;;;;19.20;1.00;;;;;;2249603;61;1363;-88
2022/03/29 08:51:31;586377.00;1.95;1010.70;0.00;0.00;0.62;;;;;19.00;1.00;;;;;;2248037;61;1109;-87
2022/03/29 08:53:58;872753.00;2.91;1508.31;15741.00;0.05;27.89;;;;;19.20;1.00;;;;;;2248217;61;1541;-89
2022/03/29 08:56:31;831443.00;2.77;1436.02;62666.00;0.21;109.09;;;;;18.90;1.00;;;;;;2248043;61;1701;-88
2022/03/29 08:58:59;1100369.00;3.67;1911.08;16378.00;0.05;29.00;;;;;18.80;1.00;;;;;;2244244;61;1602;-88
2022/03/29 09:01:27;1345159.00;4.48;2354.99;53336.00;0.18;92.96;;;;;18.80;1.00;;;;;;2244247;61;1920;-87
2022/03/29 09:04:11;1062738.00;3.54;1843.91;36467.00;0.12;63.78;;;;;19.00;1.00;;;;;;2244128;61;1651;-86
2022/03/29 09:07:00;1004936.00;3.35;1741.22;13055.00;0.04;23.24;;;;;19.00;1.00;;;;;;2244084;61;1408;-87
2022/03/29 09:09:29;464229.00;1.55;800.26;33871.00;0.11;59.28;;;;;19.20;1.00;;;;;;2243860;61;1190;-87
2022/03/29 09:11:59;844756.00;2.82;1459.29;40662.00;0.14;71.03;;;;;19.40;1.00;;;;;;2244106;61;1431;-87
2022/03/29 09:14:29;1183212.00;3.94;2059.90;152195.00;0.51;263.59;;;;;19.40;1.00;;;;;;2244169;61;1448;-89
2022/03/29 09:16:56;1016786.00;3.39;1762.22;85393.00;0.28;148.35;;;;;19.30;1.00;;;;;;2245699;61;1746;-87
2022/03/29 09:19:25;1116695.00;3.72;1940.31;201062.00;0.67;347.75;;;;;19.60;1.00;;;;;;2248107;61;887;-87
2022/03/29 09:21:55;249858.00;0.83;431.71;81384.00;0.27;141.43;;;;;19.70;1.00;;;;;;2248023;61;1916;-87
2022/03/29 09:24:26;365906.00;1.22;631.20;136410.00;0.45;236.38;;;;;20.00;1.00;;;;;;2248156;61;1090;-87
2022/03/29 09:26:56;387464.00;1.29;668.26;87326.00;0.29;151.69;;;;;20.50;1.00;;;;;;2247784;61;1352;-88
2022/03/29 09:29:25;300495.00;1.00;518.77;76658.00;0.26;133.26;;;;;20.90;1.00;;;;;;2247682;61;1525;-88
2022/03/29 09:32:05;138243.00;0.46;239.54;0.00;0.00;0.62;;;;;21.30;1.00;;;;;;2247940;61;1693;-87
2022/03/29 09:34:36;75643.00;0.25;131.51;0.00;0.00;0.62;;;;;21.30;1.00;;;;;;2248047;61;995;-88
2022/03/29 09:37:07;191573.00;0.64;331.42;0.00;0.00;0.62;;;;;21.60;1.00;;;;;;2247918;61;1733;-88
2022/03/29 09:39:47;363081.00;1.21;626.34;0.00;0.00;0.62;;;;;21.60;1.00;;;;;;2248011;61;1432;-86
2022/03/29 09:42:46;38579.00;0.13;67.43;0.00;0.00;0.62;;;;;21.70;1.00;;;;;;2248082;61;2002;-90
2022/03/29 09:45:57;711139.00;2.37;1226.56;7532.00;0.03;13.67;;;;;21.80;1.00;;;;;;2248052;61;1571;-88
2022/03/29 09:49:04;;;;;;;;;;;;;;;;;;;;;
2022/03/29 09:51:45;1047769.00;3.49;1817.26;228671.00;0.76;395.26;;;;;21.90;1.00;;;;;;2248026;61;1094;-88
2022/03/29 09:57:13;1089855.00;3.63;1892.29;90075.00;0.30;156.44;;;;;21.30;1.00;;;;;;2247561;61;1621;-87
2022/03/29 10:00:13;561013.00;1.87;966.95;110128.00;0.37;191.05;;;;;21.10;1.00;;;;;;2248008;61;1381;-88
2022/03/29 10:11:22;214394.00;0.71;370.70;0.00;0.00;0.62;;;;;21.60;1.00;;;;;;2247982;61;944;-87
2022/03/29 10:14:21;488709.00;1.63;842.39;18127.00;0.06;32.03;;;;;22.10;1.00;;;;;;2247811;61;2127;-88
2022/03/29 10:19:52;1739846.00;5.80;3103.11;60034.00;0.20;104.54;;;;;22.20;1.00;;;;;;2248031;61;1676;-87
2022/03/29 10:22:58;2167018.00;7.22;3973.10;316632.00;1.06;546.51;;;;;22.60;1.00;;;;;;2247832;61;1916;-88
2022/03/29 10:25:31;1066809.00;3.56;1851.17;86672.00;0.29;150.56;;;;;22.90;1.00;;;;;;2247576;61;1430;-88
2022/03/29 10:28:05;435872.00;1.45;751.48;81808.00;0.27;142.16;;;;;22.70;1.00;;;;;;2247848;61;1389;-89
2022/03/29 10:30:35;778445.00;2.59;1343.56;235927.00;0.79;407.74;;;;;21.90;1.00;;;;;;2247864;61;1436;-88
2022/03/29 10:39:26;1427850.00;4.76;2508.08;78144.00;0.26;135.83;;;;;21.70;1.00;;;;;;2252555;61;1069;-87
2022/03/29 10:42:42;1495690.00;4.99;2635.01;80197.00;0.27;139.38;;;;;22.20;1.00;;;;;;2247862;61;1978;-88
2022/03/29 10:45:27;1567111.00;5.22;2770.05;172725.00;0.58;298.96;;;;;22.50;1.00;;;;;;2247646;61;1295;-87
2022/03/29 10:48:12;1511470.00;5.04;2664.72;111046.00;0.37;192.63;;;;;22.20;1.00;;;;;;2247760;61;1496;-89
2022/03/29 10:51:10;1136145.00;3.79;1975.19;90847.00;0.30;157.77;;;;;21.70;1.00;;;;;;2247730;61;1444;-87
2022/03/29 10:57:14;34405.00;0.11;60.21;0.00;0.00;0.62;;;;;22.20;1.00;;;;;;2250080;61;1310;-87
2022/03/29 11:00:20;80388.00;0.27;139.71;0.00;0.00;0.62;;;;;22.00;1.00;;;;;;2247777;61;1695;-88
2022/03/29 11:03:36;24628.00;0.08;43.28;0.00;0.00;0.62;;;;;22.20;1.00;;;;;;2247706;61;2015;-87
2022/03/29 11:06:19;153391.00;0.51;265.65;0.00;0.00;0.62;;;;;22.10;1.00;;;;;;2247770;61;1278;-87
2022/03/29 11:09:31;199528.00;0.67;345.11;0.00;0.00;0.62;;;;;22.30;1.00;;;;;;2247745;61;1542;-88
2022/03/29 11:12:33;155150.00;0.52;268.68;0.00;0.00;0.62;;;;;22.50;1.00;;;;;;2247830;61;1080;-88
2022/03/29 11:32:08;865172.00;2.88;1495.03;74800.00;0.25;130.05;;;;;23.10;1.00;;;;;;2337868;41;3440;-88
2022/03/29 11:35:19;;;;;;;;;;;;;;;;;;;;;
2022/03/29 11:42:53;1351936.00;4.51;2367.47;119516.00;0.40;207.25;;;;;23.10;1.00;;;;;;2264109;40;3445;-87
2022/03/29 11:50:35;356248.00;1.19;614.60;0.00;0.00;0.62;;;;;23.10;1.00;;;;;;2253976;61;1411;-86
2022/03/29 11:53:02;194525.00;0.65;336.50;0.00;0.00;0.62;;;;;22.70;1.00;;;;;;2252276;61;1634;-86
2022/03/29 11:55:29;1526804.00;5.09;2693.66;88872.00;0.30;154.36;;;;;22.70;1.00;;;;;;2252425;61;1080;-85
2022/03/29 11:57:57;609942.00;2.03;1051.39;126035.00;0.42;218.49;;;;;22.90;1.00;;;;;;2252323;61;1391;-86
2022/03/29 12:00:26;217069.00;0.72;375.30;0.00;0.00;0.62;;;;;22.80;1.00;;;;;;2252220;61;990;-88
2022/03/29 12:02:56;472122.00;1.57;813.84;20645.00;0.07;36.39;;;;;23.40;1.00;;;;;;2252080;61;1987;-88
2022/03/29 12:05:30;774883.00;2.58;1337.35;120514.00;0.40;208.97;;;;;23.80;1.00;;;;;;2261965;55;3741;-87
2022/03/29 12:08:08;713782.00;2.38;1231.15;39987.00;0.13;69.87;;;;;23.90;1.00;;;;;;2294527;56;3809;-87
2022/03/29 12:13:18;461367.00;1.54;795.34;101360.00;0.34;175.92;;;;;24.40;1.00;;;;;;2271593;61;1597;-86
2022/03/29 12:15:57;1692236.00;5.64;3010.35;177711.00;0.59;307.55;;;;;24.10;1.00;;;;;;2269015;61;1406;-86
2022/03/29 12:18:45;1257126.00;4.19;2193.85;49278.00;0.16;85.94;;;;;23.90;1.00;;;;;;2270103;61;1636;-87
2022/03/29 12:21:15;841707.00;2.81;1453.96;82522.00;0.28;143.39;;;;;23.80;1.00;;;;;;2352657;41;3638;-86
2022/03/29 12:23:44;1003495.00;3.34;1738.66;67204.00;0.22;116.93;;;;;23.40;1.00;;;;;;2252711;61;1976;-87
2022/03/29 12:26:14;166628.00;0.56;288.46;0.00;0.00;0.62;;;;;23.80;1.00;;;;;;2252140;61;1288;-88
2022/03/29 12:28:42;441495.00;1.47;761.15;87643.00;0.29;152.24;;;;;24.20;1.00;;;;;;2271398;40;3624;-90
2022/03/29 12:31:27;304810.00;1.02;526.19;63297.00;0.21;110.18;;;;;24.10;1.00;;;;;;2252658;61;1563;-88
2022/03/29 12:33:57;919420.00;3.06;1590.25;38340.00;0.13;67.02;;;;;24.00;1.00;;;;;;2252124;61;1573;-87
2022/03/29 12:36:29;2113808.00;7.05;3860.69;165833.00;0.55;287.09;;;;;23.80;1.00;;;;;;2252104;61;1386;-88
2022/03/29 12:39:07;373656.00;1.25;644.52;80406.00;0.27;139.74;;;;;23.90;1.00;;;;;;2251982;61;1639;-87
2022/03/29 12:41:41;207532.00;0.69;358.89;25914.00;0.09;45.51;;;;;24.20;1.00;;;;;;2252108;61;1133;-85
2022/03/29 12:44:14;421962.00;1.41;727.56;59864.00;0.20;104.24;;;;;24.40;1.00;;;;;;2252239;61;1471;-86
2022/03/29 12:46:46;276278.00;0.92;477.14;10283.00;0.03;18.44;;;;;24.60;1.00;;;;;;2251941;61;1745;-86
2022/03/29 12:49:17;898320.00;2.99;1553.17;0.00;0.00;0.62;;;;;24.30;1.00;;;;;;2252233;61;1302;-87
2022/03/29 12:51:45;2196298.00;7.32;4035.49;146363.00;0.49;253.54;;;;;24.20;1.00;;;;;;2252069;61;1479;-88
2022/03/29 12:54:34;1104939.00;3.68;1919.26;124720.00;0.42;216.22;;;;;24.70;1.00;;;;;;2252151;61;1533;-86
2022/03/29 12:57:04;548353.00;1.83;945.12;121161.00;0.40;210.09;;;;;24.70;1.00;;;;;;2252010;61;1540;-87
2022/03/29 12:59:36;95520.00;0.32;165.84;0.00;0.00;0.62;;;;;24.20;1.00;;;;;;2252059;61;1072;-89
2022/03/29 13:02:17;238538.00;0.80;412.24;34341.00;0.11;60.10;;;;;23.80;1.00;;;;;;2252077;61;1915;-88
2022/03/29 13:07:39;289718.00;0.97;500.24;39800.00;0.13;69.54;;;;;24.30;1.00;;;;;;2251870;61;1361;-87
2022/03/29 13:10:15;178582.00;0.60;309.05;34502.00;0.12;60.37;;;;;24.40;1.00;;;;;;2252115;61;1690;-87
2022/03/29 13:12:51;221839.00;0.74;383.51;21430.00;0.07;37.75;;;;;23.80;1.00;;;;;;2252056;61;1660;-86
2022/03/29 13:15:48;1624003.00;5.41;2878.70;109607.00;0.37;190.15;;;;;23.50;1.00;;;;;;2252085;61;1035;-88
2022/03/29 13:18:36;1798298.00;5.99;3218.06;101218.00;0.34;175.67;;;;;23.80;1.00;;;;;;2251994;61;1537;-86
2022/03/29 13:21:11;1247924.00;4.16;2177.11;39468.00;0.13;68.97;;;;;24.10;1.00;;;;;;2252060;61;1116;-87
2022/03/29 13:23:40;755735.00;2.52;1304.03;134369.00;0.45;232.86;;;;;24.50;1.00;;;;;;2252073;61;2008;-85
2022/03/29 13:26:13;94506.00;0.32;164.09;0.00;0.00;0.62;;;;;24.90;1.00;;;;;;2251991;61;1483;-86
2022/03/29 13:28:42;356977.00;1.19;615.85;32269.00;0.11;56.51;;;;;24.30;1.00;;;;;;2251890;61;1698;-88
2022/03/29 13:31:14;177883.00;0.59;307.84;0.00;0.00;0.62;;;;;24.10;1.00;;;;;;2251929;61;1581;-86
2022/03/29 13:33:42;172297.00;0.57;298.22;0.00;0.00;0.62;;;;;24.40;1.00;;;;;;2251994;61;1237;-87
2022/03/29 13:36:19;234975.00;0.78;406.11;0.00;0.00;0.62;;;;;24.10;1.00;;;;;;2251954;61;2242;-85
2022/03/29 13:38:48;224855.00;0.75;388.70;0.00;0.00;0.62;;;;;24.10;1.00;;;;;;2251925;61;1455;-85
2022/03/29 13:41:18;309810.00;1.03;534.78;0.00;0.00;0.62;;;;;24.10;1.00;;;;;;2255912;55;3756;-87
2022/03/29 13:43:45;78529.00;0.26;136.50;0.00;0.00;0.62;;;;;24.40;1.00;;;;;;2251935;61;2014;-86
2022/03/29 13:46:14;394737.00;1.32;680.76;9688.00;0.03;17.41;;;;;24.60;1.00;;;;;;2251857;61;1414;-88
2022/03/29 13:53:53;421852.00;1.41;727.37;109876.00;0.37;190.62;;;;;24.30;1.00;;;;;;2274376;41;1947;-87
2022/03/29 14:01:34;648511.00;2.16;1118.06;0.00;0.00;0.62;;;;;24.00;1.00;;;;;;1967275;41;1335837;-86
2022/03/29 14:04:05;1042043.00;3.47;1807.08;179076.00;0.60;309.90;;;;;23.60;1.00;;;;;;2256987;60;1928;-88
2022/03/29 14:06:32;1672754.00;5.58;2972.61;207015.00;0.69;358.00;;;;;23.60;1.00;;;;;;2255805;61;1650;-87
2022/03/29 14:11:33;1428148.00;4.76;2508.63;165564.00;0.55;286.63;;;;;23.90;1.00;;;;;;2265758;61;1279;-87
2022/03/29 14:14:00;1362314.00;4.54;2386.61;74120.00;0.25;128.88;;;;;24.00;1.00;;;;;;2264300;61;1648;-86
2022/03/29 14:16:29;1392993.00;4.64;2443.33;204308.00;0.68;353.34;;;;;23.90;1.00;;;;;;2269110;55;3770;-87
2022/03/29 14:19:03;1768838.00;5.90;3159.97;240331.00;0.80;415.32;;;;;23.60;1.00;;;;;;2259891;60;1080;-88
2022/03/29 14:21:44;1566761.00;5.22;2769.38;328538.00;1.10;566.97;;;;;23.40;1.00;;;;;;2289493;56;3778;-88
2022/03/29 14:24:13;1243069.00;4.14;2168.29;85352.00;0.28;148.28;;;;;23.10;1.00;;;;;;2396231;40;3752;-88
2022/03/29 14:26:52;1071215.00;3.57;1859.02;220066.00;0.73;380.46;;;;;23.10;1.00;;;;;;2255709;61;1399;-89
2022/03/29 14:29:21;1404530.00;4.68;2464.73;253505.00;0.85;437.98;;;;;23.10;1.00;;;;;;2259998;55;3765;-87
2022/03/29 14:31:48;783496.00;2.61;1352.36;155498.00;0.52;269.28;;;;;23.00;1.00;;;;;;2265933;40;3710;-88
2022/03/29 14:34:17;347769.00;1.16;600.03;77092.00;0.26;134.01;;;;;23.10;1.00;;;;;;2268284;55;3852;-86
2022/03/29 14:36:47;559615.00;1.87;964.54;96586.00;0.32;167.68;;;;;23.10;1.00;;;;;;2255777;61;1365;-87
2022/03/29 14:39:24;953429.00;3.18;1650.16;149722.00;0.50;259.33;;;;;22.90;1.00;;;;;;2275220;40;3743;-85
2022/03/29 14:44:27;1205996.00;4.02;2101.06;150813.00;0.50;261.21;;;;;22.90;1.00;;;;;;2253520;57;1928;-87
2022/03/29 14:46:57;1125551.00;3.75;1956.18;171313.00;0.57;296.53;;;;;22.90;1.00;;;;;;2251741;61;1353;-87
2022/03/29 14:52:03;711841.00;2.37;1227.78;99346.00;0.33;172.44;;;;;21.90;1.00;;;;;;2331364;41;2147;-86
2022/03/29 14:56:58;849913.00;2.83;1468.32;0.00;0.00;0.62;;;;;21.90;1.00;;;;;;2256910;61;1325;-88
2022/03/29 14:59:25;407577.00;1.36;702.83;0.00;0.00;0.62;;;;;21.70;1.00;;;;;;2255755;61;1526;-85
2022/03/29 15:01:54;685271.00;2.28;1181.71;41652.00;0.14;72.75;;;;;21.80;1.00;;;;;;2301323;40;3581;-86
2022/03/29 15:04:21;520193.00;1.73;896.60;66592.00;0.22;115.87;;;;;21.50;1.00;;;;;;2251562;61;1995;-86
2022/03/29 15:06:51;249089.00;0.83;430.38;15126.00;0.05;26.83;;;;;21.70;1.00;;;;;;2251694;61;1289;-88
2022/03/29 15:14:20;1787151.00;5.96;3196.04;152455.00;0.51;264.04;;;;;20.80;1.00;;;;;;2258267;61;1368;-86
2022/03/29 15:16:59;744620.00;2.48;1284.70;92328.00;0.31;160.33;;;;;21.10;1.00;;;;;;2256315;61;1568;-88
2022/03/29 15:19:26;129620672.00;432.07;88241448.00;222722.00;0.74;385.03;;;;;21.50;1.00;;;;;;2256372;61;1168;-88
2022/03/29 15:21:54;534817.00;1.78;921.79;133022.00;0.44;230.54;;;;;21.70;1.00;;;;;;2264304;41;3581;-88
2022/03/29 15:24:21;462570.00;1.54;797.41;46131.00;0.15;80.49;;;;;22.10;1.00;;;;;;2256354;61;2003;-88
2022/03/29 15:26:51;754636.00;2.52;1302.12;250646.00;0.84;433.06;;;;;22.20;1.00;;;;;;2256255;61;2318;-85
2022/03/29 15:31:54;862034.00;2.87;1489.53;0.00;0.00;0.62;;;;;20.80;1.00;;;;;;2258038;61;1382;-88
2022/03/29 15:34:32;570030.00;1.90;982.50;55366.00;0.18;96.47;;;;;21.20;1.00;;;;;;2256396;61;1441;-87
2022/03/29 15:37:03;152514.00;0.51;264.14;0.00;0.00;0.62;;;;;21.40;1.00;;;;;;2256331;61;2014;-89
2022/03/29 15:39:31;488371.00;1.63;841.80;33013.00;0.11;57.80;;;;;21.60;1.00;;;;;;2256405;61;971;-87
2022/03/29 15:41:59;509700.00;1.70;878.53;0.00;0.00;0.62;;;;;21.60;1.00;;;;;;2256294;61;1178;-87
2022/03/29 15:44:29;597034.00;1.99;1029.10;0.00;0.00;0.62;;;;;21.70;1.00;;;;;;2315168;41;3656;-89
2022/03/29 15:46:57;216247.00;0.72;373.89;0.00;0.00;0.62;;;;;21.50;1.00;;;;;;2256304;61;1396;-85
2022/03/29 15:49:25;829400.00;2.76;1432.45;160630.00;0.54;278.12;;;;;20.90;1.00;;;;;;2256282;61;1141;-87
2022/03/29 15:51:52;886181.00;2.95;1531.86;22826.00;0.08;40.16;;;;;20.70;1.00;;;;;;2256226;61;1075;-87
2022/03/29 15:54:25;315549.00;1.05;544.65;0.00;0.00;0.62;;;;;20.90;1.00;;;;;;2256268;61;1070;-88
2022/03/29 15:56:54;414872.00;1.38;715.37;42899.00;0.14;74.90;;;;;21.20;1.00;;;;;;2256244;61;1478;-88
2022/03/29 15:59:21;308859.00;1.03;533.15;20553.00;0.07;36.23;;;;;21.00;1.00;;;;;;2256248;61;1053;-85
2022/03/29 16:01:50;639136.00;2.13;1101.84;104515.00;0.35;181.36;;;;;20.80;1.00;;;;;;2256302;61;1530;-87
2022/03/29 16:04:23;248658.00;0.83;429.64;32425.00;0.11;56.78;;;;;20.50;1.00;;;;;;2256310;61;1920;-88
2022/03/29 16:06:50;1116412.00;3.72;1939.80;141192.00;0.47;244.63;;;;;20.70;1.00;;;;;;2256262;61;1401;-87
2022/03/29 16:09:18;1945043.00;6.48;3512.08;235604.00;0.79;407.19;;;;;20.50;1.00;;;;;;2256227;61;1459;-89
2022/03/29 16:14:14;1377151.00;4.59;2414.01;157650.00;0.53;272.99;;;;;20.40;1.00;;;;;;813188;41;3345;-86
2022/03/29 16:16:41;491898.00;1.64;847.88;86233.00;0.29;149.80;;;;;19.90;1.00;;;;;;2256000;61;1241;-87
2022/03/29 16:19:25;896863.00;2.99;1550.61;63913.00;0.21;111.24;;;;;19.70;1.00;;;;;;2255955;61;1007;-87
2022/03/29 16:21:52;786728.00;2.62;1357.99;145643.00;0.49;252.30;;;;;19.70;1.00;;;;;;2266800;55;3725;-86
2022/03/29 16:24:25;506600.00;1.69;873.19;93236.00;0.31;161.90;;;;;20.00;1.00;;;;;;2257589;61;1990;-87
2022/03/29 16:27:00;902466.00;3.01;1560.45;86732.00;0.29;150.66;;;;;20.10;1.00;;;;;;2255952;61;1488;-86
2022/03/29 16:29:27;625470.00;2.08;1078.22;88659.00;0.30;153.99;;;;;20.60;1.00;;;;;;2256059;61;972;-88
2022/03/29 16:31:54;459979.00;1.53;792.95;0.00;0.00;0.62;;;;;20.80;1.00;;;;;;2256180;61;1139;-87
2022/03/29 16:34:24;434140.00;1.45;748.51;0.00;0.00;0.62;;;;;20.90;1.00;;;;;;2256064;61;931;-88